Terminal Aerodrome Forecast
Issued by NWS

Home | Current Version | Previous Version | Text Only | Print | Product List | Glossary Off
Versions: 1 2 3 4 5 6 7 8 9 10 11 12 13 14 15 16 17 18 19 20 21 22 23 24 25 26

000
FTUS43 KICT 221720
TAFCNU
TAF
KCNU 221720Z 2218/2318 13008KT P6SM -RA SCT035 OVC050
     FM222000 13008KT P6SM VCSH SCT020 OVC040
     FM231400 16009KT 5SM BR VCSH SCT015 OVC035=

USA.gov is the U.S. government's official web portal to all federal, state and local government web resources and services.